EWG40P ESSA-EDDH
Flight info
| Callsign | EWG40P |
|---|---|
| Flight time | 1h 9m |
| Altitude | 38000 |
| Route | NOSLI N850 ABAMA DCT GIMRU T503 MICOS N850 BOGMU BOGMU3P |
| Aircraft | A319/M-SDE3FGHIRWY/LB1 |
Departure
| Time | 2026-04-23 12:55 |
|---|---|
| Airport | Stockholm-Arlanda Airport (ESSA) |
Arrival
| Time | 2026-04-23 14:04 |
|---|---|
| Airport | Hamburg Helmut Schmidt Airport (EDDH) |
| Time | Latitude | Longitude | Altitude | Speed | Heading |
|---|---|---|---|---|---|
| 2026-04-23 12:48 | 59.65397 | 17.93537 | 138 ft | 0 kts | 75° |
| 2026-04-23 12:48 | 59.65396 | 17.93534 | 138 ft | 2 kts | 75° |
| 2026-04-23 12:48 | 59.65391 | 17.93496 | 138 ft | 3 kts | 72° |
| 2026-04-23 12:49 | 59.65384 | 17.93458 | 138 ft | 3 kts | 66° |
| 2026-04-23 12:49 | 59.65375 | 17.93423 | 137 ft | 3 kts | 54° |
| 2026-04-23 12:49 | 59.65363 | 17.93396 | 137 ft | 3 kts | 23° |
| 2026-04-23 12:49 | 59.65349 | 17.93391 | 138 ft | 1 kts | 345° |
| 2026-04-23 12:50 | 59.65346 | 17.93393 | 138 ft | 0 kts | 345° |
| 2026-04-23 12:51 | 59.65347 | 17.93392 | 138 ft | 1 kts | 345° |
| 2026-04-23 12:52 | 59.65375 | 17.93378 | 138 ft | 6 kts | 346° |
| 2026-04-23 12:52 | 59.65425 | 17.93354 | 138 ft | 8 kts | 347° |
| 2026-04-23 12:52 | 59.65488 | 17.93337 | 138 ft | 10 kts | 357° |
| 2026-04-23 12:52 | 59.65560 | 17.93316 | 138 ft | 11 kts | 347° |
| 2026-04-23 12:53 | 59.65636 | 17.93318 | 138 ft | 11 kts | 30° |
| 2026-04-23 12:53 | 59.65692 | 17.93430 | 138 ft | 12 kts | 46° |
| 2026-04-23 12:53 | 59.65753 | 17.93556 | 138 ft | 15 kts | 46° |
| 2026-04-23 12:53 | 59.65827 | 17.93705 | 138 ft | 15 kts | 46° |
| 2026-04-23 12:54 | 59.65878 | 17.93892 | 138 ft | 16 kts | 75° |
| 2026-04-23 12:54 | 59.65912 | 17.94156 | 140 ft | 41 kts | 76° |
| 2026-04-23 12:54 | 59.66061 | 17.95306 | 136 ft | 129 kts | 76° |
| 2026-04-23 12:54 | 59.66324 | 17.97424 | 302 ft | 177 kts | 73° |
| 2026-04-23 12:55 | 59.66604 | 17.99900 | 929 ft | 189 kts | 72° |
| 2026-04-23 12:55 | 59.66888 | 18.02457 | 1611 ft | 195 kts | 72° |
| 2026-04-23 12:55 | 59.67352 | 18.05078 | 2121 ft | 206 kts | 51° |
| 2026-04-23 12:55 | 59.68498 | 18.06597 | 2827 ft | 200 kts | 8° |
| 2026-04-23 12:56 | 59.69846 | 18.06365 | 3751 ft | 197 kts | 336° |
| 2026-04-23 12:56 | 59.70858 | 18.04574 | 4636 ft | 202 kts | 300° |
| 2026-04-23 12:56 | 59.71119 | 18.01800 | 5507 ft | 212 kts | 273° |
| 2026-04-23 12:56 | 59.71055 | 17.98875 | 6385 ft | 214 kts | 274° |
| 2026-04-23 12:57 | 59.70979 | 17.95902 | 7152 ft | 217 kts | 274° |
| 2026-04-23 12:57 | 59.70849 | 17.92904 | 7944 ft | 223 kts | 264° |
| 2026-04-23 12:57 | 59.70291 | 17.89862 | 8440 ft | 248 kts | 253° |
| 2026-04-23 12:57 | 59.69572 | 17.86572 | 8850 ft | 272 kts | 254° |
| 2026-04-23 12:58 | 59.69039 | 17.82931 | 9515 ft | 279 kts | 262° |
| 2026-04-23 12:58 | 59.68555 | 17.79174 | 10277 ft | 286 kts | 262° |
| 2026-04-23 12:58 | 59.68051 | 17.75191 | 10599 ft | 310 kts | 262° |
| 2026-04-23 12:58 | 59.67318 | 17.71019 | 11084 ft | 332 kts | 249° |
| 2026-04-23 12:59 | 59.65983 | 17.67178 | 11827 ft | 347 kts | 233° |
| 2026-04-23 12:59 | 59.64098 | 17.64082 | 12599 ft | 361 kts | 216° |
| 2026-04-23 12:59 | 59.61756 | 17.62072 | 13362 ft | 373 kts | 201° |
| 2026-04-23 12:59 | 59.59264 | 17.60555 | 14092 ft | 377 kts | 201° |
| 2026-04-23 13:00 | 59.56772 | 17.59052 | 14721 ft | 382 kts | 201° |
| 2026-04-23 13:00 | 59.54187 | 17.57491 | 15378 ft | 386 kts | 202° |
| 2026-04-23 13:00 | 59.51607 | 17.55915 | 16007 ft | 390 kts | 203° |
| 2026-04-23 13:00 | 59.49050 | 17.54252 | 16595 ft | 395 kts | 204° |
| 2026-04-23 13:01 | 59.46440 | 17.52457 | 17207 ft | 400 kts | 205° |
| 2026-04-23 13:01 | 59.43805 | 17.50604 | 17806 ft | 405 kts | 206° |
| 2026-04-23 13:01 | 59.41139 | 17.48727 | 18404 ft | 410 kts | 206° |
| 2026-04-23 13:01 | 59.38435 | 17.46841 | 18933 ft | 415 kts | 206° |
| 2026-04-23 13:02 | 59.35699 | 17.44955 | 19493 ft | 418 kts | 206° |
| 2026-04-23 13:02 | 59.32940 | 17.43068 | 20050 ft | 422 kts | 206° |
| 2026-04-23 13:02 | 59.30156 | 17.41172 | 20610 ft | 426 kts | 206° |
| 2026-04-23 13:02 | 59.27342 | 17.39263 | 21128 ft | 430 kts | 206° |
| 2026-04-23 13:03 | 59.24505 | 17.37351 | 21663 ft | 434 kts | 206° |
| 2026-04-23 13:03 | 59.21638 | 17.35426 | 22218 ft | 437 kts | 206° |
| 2026-04-23 13:03 | 59.18753 | 17.33488 | 22763 ft | 441 kts | 206° |
| 2026-04-23 13:03 | 59.15842 | 17.31530 | 23302 ft | 444 kts | 206° |
| 2026-04-23 13:04 | 59.12906 | 17.29561 | 23795 ft | 448 kts | 206° |
| 2026-04-23 13:04 | 59.09956 | 17.27559 | 24218 ft | 449 kts | 208° |
| 2026-04-23 13:04 | 59.07158 | 17.24968 | 24629 ft | 442 kts | 219° |
| 2026-04-23 13:04 | 59.04656 | 17.21577 | 25047 ft | 435 kts | 229° |
| 2026-04-23 13:05 | 59.02337 | 17.17793 | 25413 ft | 437 kts | 229° |
| 2026-04-23 13:05 | 58.99997 | 17.13992 | 25803 ft | 441 kts | 229° |
| 2026-04-23 13:05 | 58.97633 | 17.10176 | 26199 ft | 444 kts | 228° |
| 2026-04-23 13:05 | 58.95246 | 17.06341 | 26592 ft | 447 kts | 228° |
| 2026-04-23 13:06 | 58.90417 | 16.98633 | 27372 ft | 453 kts | 228° |
| 2026-04-23 13:06 | 58.87980 | 16.94754 | 27764 ft | 456 kts | 228° |
| 2026-04-23 13:06 | 58.85528 | 16.90847 | 28146 ft | 458 kts | 228° |
| 2026-04-23 13:07 | 58.83057 | 16.86918 | 28534 ft | 461 kts | 228° |
| 2026-04-23 13:07 | 58.80572 | 16.82972 | 28905 ft | 464 kts | 228° |
| 2026-04-23 13:07 | 58.78071 | 16.79004 | 29235 ft | 467 kts | 227° |
| 2026-04-23 13:07 | 58.75551 | 16.75018 | 29579 ft | 470 kts | 227° |
| 2026-04-23 13:08 | 58.73012 | 16.71015 | 29913 ft | 473 kts | 227° |
| 2026-04-23 13:08 | 58.70458 | 16.66993 | 30240 ft | 476 kts | 227° |
| 2026-04-23 13:08 | 58.67893 | 16.62953 | 30532 ft | 478 kts | 227° |
| 2026-04-23 13:08 | 58.65309 | 16.58887 | 30814 ft | 481 kts | 227° |
| 2026-04-23 13:09 | 58.62717 | 16.54825 | 31107 ft | 483 kts | 227° |
| 2026-04-23 13:09 | 58.60110 | 16.50749 | 31391 ft | 485 kts | 227° |
| 2026-04-23 13:09 | 58.57488 | 16.46665 | 31637 ft | 486 kts | 227° |
| 2026-04-23 13:09 | 58.54862 | 16.42583 | 32028 ft | 485 kts | 227° |
| 2026-04-23 13:10 | 58.52245 | 16.38529 | 32424 ft | 484 kts | 226° |
| 2026-04-23 13:10 | 58.49630 | 16.34484 | 32832 ft | 483 kts | 226° |
| 2026-04-23 13:10 | 58.47054 | 16.30497 | 33222 ft | 482 kts | 226° |
| 2026-04-23 13:10 | 58.44418 | 16.26418 | 33638 ft | 481 kts | 226° |
| 2026-04-23 13:11 | 58.41818 | 16.22403 | 34045 ft | 480 kts | 226° |
| 2026-04-23 13:11 | 58.39218 | 16.18401 | 34407 ft | 480 kts | 226° |
| 2026-04-23 13:11 | 58.36626 | 16.14419 | 34766 ft | 478 kts | 226° |
| 2026-04-23 13:11 | 58.34038 | 16.10448 | 35126 ft | 477 kts | 226° |
| 2026-04-23 13:12 | 58.31458 | 16.06496 | 35473 ft | 476 kts | 226° |
| 2026-04-23 13:12 | 58.28879 | 16.02554 | 35812 ft | 474 kts | 226° |
| 2026-04-23 13:12 | 58.26309 | 15.98635 | 36190 ft | 472 kts | 226° |
| 2026-04-23 13:12 | 58.23750 | 15.94739 | 36523 ft | 471 kts | 226° |
| 2026-04-23 13:13 | 58.21200 | 15.90871 | 36844 ft | 470 kts | 225° |
| 2026-04-23 13:13 | 58.18647 | 15.87010 | 37142 ft | 469 kts | 225° |
| 2026-04-23 13:13 | 58.16102 | 15.83163 | 37435 ft | 468 kts | 225° |
| 2026-04-23 13:13 | 58.13561 | 15.79331 | 37720 ft | 467 kts | 225° |
| 2026-04-23 13:14 | 58.11055 | 15.75556 | 38004 ft | 466 kts | 225° |
| 2026-04-23 13:14 | 58.08483 | 15.71687 | 38107 ft | 465 kts | 225° |
| 2026-04-23 13:14 | 58.05957 | 15.67889 | 38122 ft | 464 kts | 225° |
| 2026-04-23 13:15 | 58.00896 | 15.60306 | 38131 ft | 464 kts | 225° |
| 2026-04-23 13:15 | 57.96666 | 15.54076 | 38137 ft | 465 kts | 224° |
| 2026-04-23 13:16 | 57.90600 | 15.45657 | 38138 ft | 467 kts | 223° |
| 2026-04-23 13:16 | 57.85331 | 15.38511 | 38135 ft | 467 kts | 223° |
| 2026-04-23 13:17 | 57.80056 | 15.31310 | 38132 ft | 466 kts | 223° |
| 2026-04-23 13:17 | 57.74868 | 15.24197 | 38147 ft | 464 kts | 223° |
| 2026-04-23 13:18 | 57.69661 | 15.17081 | 38149 ft | 463 kts | 222° |
| 2026-04-23 13:18 | 57.64452 | 15.10003 | 38152 ft | 463 kts | 222° |
| 2026-04-23 13:19 | 57.59247 | 15.02947 | 38152 ft | 462 kts | 222° |
| 2026-04-23 13:19 | 57.54880 | 14.97060 | 38139 ft | 462 kts | 222° |
| 2026-04-23 13:20 | 57.49667 | 14.90053 | 38141 ft | 462 kts | 222° |
| 2026-04-23 13:20 | 57.44493 | 14.83104 | 38142 ft | 462 kts | 222° |
| 2026-04-23 13:21 | 57.39278 | 14.76127 | 38144 ft | 462 kts | 222° |
| 2026-04-23 13:21 | 57.34020 | 14.69140 | 38129 ft | 462 kts | 221° |
| 2026-04-23 13:22 | 57.28826 | 14.62268 | 38133 ft | 462 kts | 221° |
| 2026-04-23 13:22 | 57.23598 | 14.55365 | 38139 ft | 462 kts | 221° |
| 2026-04-23 13:23 | 57.18362 | 14.48468 | 38145 ft | 462 kts | 221° |
| 2026-04-23 13:23 | 57.13122 | 14.41583 | 38147 ft | 463 kts | 221° |
| 2026-04-23 13:24 | 57.07876 | 14.34711 | 38136 ft | 463 kts | 221° |
| 2026-04-23 13:24 | 57.02618 | 14.27869 | 38138 ft | 463 kts | 221° |
| 2026-04-23 13:25 | 56.97363 | 14.21044 | 38147 ft | 462 kts | 220° |
| 2026-04-23 13:25 | 56.92114 | 14.14248 | 38145 ft | 462 kts | 220° |
| 2026-04-23 13:26 | 56.86865 | 14.07481 | 38157 ft | 462 kts | 220° |
| 2026-04-23 13:26 | 56.81613 | 14.00738 | 38131 ft | 461 kts | 220° |
| 2026-04-23 13:27 | 56.76357 | 13.94007 | 38150 ft | 461 kts | 220° |
| 2026-04-23 13:27 | 56.71104 | 13.87301 | 38150 ft | 461 kts | 219° |
| 2026-04-23 13:28 | 56.65834 | 13.80625 | 38158 ft | 461 kts | 219° |
| 2026-04-23 13:28 | 56.60567 | 13.73969 | 38154 ft | 461 kts | 219° |
| 2026-04-23 13:29 | 56.55308 | 13.67311 | 38154 ft | 461 kts | 219° |
| 2026-04-23 13:29 | 56.50036 | 13.60659 | 38161 ft | 462 kts | 219° |
| 2026-04-23 13:30 | 56.44755 | 13.54036 | 38163 ft | 462 kts | 219° |
| 2026-04-23 13:30 | 56.39462 | 13.47442 | 38168 ft | 462 kts | 219° |
| 2026-04-23 13:31 | 56.34164 | 13.40856 | 38172 ft | 462 kts | 218° |
| 2026-04-23 13:31 | 56.28869 | 13.34289 | 38185 ft | 462 kts | 218° |
| 2026-04-23 13:32 | 56.23567 | 13.27722 | 38176 ft | 462 kts | 218° |
| 2026-04-23 13:32 | 56.18264 | 13.21179 | 38160 ft | 462 kts | 218° |
| 2026-04-23 13:33 | 56.12973 | 13.14682 | 38174 ft | 461 kts | 217° |
| 2026-04-23 13:33 | 56.07682 | 13.08219 | 38204 ft | 460 kts | 217° |
| 2026-04-23 13:34 | 56.02398 | 13.01767 | 38212 ft | 460 kts | 217° |
| 2026-04-23 13:34 | 55.97116 | 12.95329 | 38210 ft | 459 kts | 217° |
| 2026-04-23 13:35 | 55.91821 | 12.88932 | 38211 ft | 459 kts | 217° |
| 2026-04-23 13:35 | 55.86531 | 12.82560 | 38203 ft | 459 kts | 217° |
| 2026-04-23 13:36 | 55.81244 | 12.76181 | 38207 ft | 459 kts | 217° |
| 2026-04-23 13:36 | 55.75992 | 12.69867 | 38208 ft | 459 kts | 217° |
| 2026-04-23 13:37 | 55.70698 | 12.63536 | 38203 ft | 459 kts | 217° |
| 2026-04-23 13:37 | 55.65403 | 12.57225 | 38196 ft | 459 kts | 216° |
| 2026-04-23 13:38 | 55.60101 | 12.50938 | 38199 ft | 459 kts | 216° |
| 2026-04-23 13:38 | 55.54797 | 12.44669 | 38201 ft | 459 kts | 216° |
| 2026-04-23 13:39 | 55.49494 | 12.38403 | 38215 ft | 459 kts | 216° |
| 2026-04-23 13:39 | 55.44193 | 12.32153 | 38215 ft | 459 kts | 216° |
| 2026-04-23 13:40 | 55.38878 | 12.25928 | 38203 ft | 458 kts | 216° |
| 2026-04-23 13:40 | 55.33575 | 12.19745 | 38225 ft | 457 kts | 215° |
| 2026-04-23 13:41 | 55.28273 | 12.13592 | 38222 ft | 457 kts | 215° |
| 2026-04-23 13:41 | 55.22960 | 12.07425 | 37841 ft | 461 kts | 216° |
| 2026-04-23 13:41 | 55.20295 | 12.04328 | 37291 ft | 458 kts | 216° |
| 2026-04-23 13:42 | 55.17643 | 12.01252 | 36710 ft | 456 kts | 215° |
| 2026-04-23 13:42 | 55.14999 | 11.98196 | 36144 ft | 454 kts | 215° |
| 2026-04-23 13:42 | 55.12368 | 11.95165 | 35590 ft | 452 kts | 215° |
| 2026-04-23 13:42 | 55.09747 | 11.92154 | 35043 ft | 450 kts | 215° |
| 2026-04-23 13:43 | 55.07126 | 11.89150 | 34536 ft | 450 kts | 215° |
| 2026-04-23 13:43 | 55.04516 | 11.86159 | 33984 ft | 450 kts | 216° |
| 2026-04-23 13:43 | 55.01932 | 11.83195 | 33407 ft | 451 kts | 215° |
| 2026-04-23 13:43 | 54.99306 | 11.80186 | 32806 ft | 452 kts | 215° |
| 2026-04-23 13:44 | 54.96670 | 11.77172 | 32236 ft | 454 kts | 215° |
| 2026-04-23 13:44 | 54.94024 | 11.74156 | 31673 ft | 456 kts | 214° |
| 2026-04-23 13:44 | 54.91359 | 11.71130 | 31122 ft | 458 kts | 214° |
| 2026-04-23 13:44 | 54.88680 | 11.68092 | 30591 ft | 460 kts | 214° |
| 2026-04-23 13:45 | 54.85994 | 11.65048 | 30017 ft | 462 kts | 214° |
| 2026-04-23 13:45 | 54.83298 | 11.61995 | 29398 ft | 463 kts | 214° |
| 2026-04-23 13:45 | 54.80593 | 11.58937 | 28796 ft | 464 kts | 214° |
| 2026-04-23 13:45 | 54.77882 | 11.55877 | 28207 ft | 465 kts | 214° |
| 2026-04-23 13:46 | 54.75169 | 11.52819 | 27639 ft | 466 kts | 214° |
| 2026-04-23 13:46 | 54.72448 | 11.49761 | 27067 ft | 465 kts | 214° |
| 2026-04-23 13:46 | 54.69745 | 11.46728 | 26522 ft | 461 kts | 214° |
| 2026-04-23 13:46 | 54.67064 | 11.43721 | 25975 ft | 458 kts | 214° |
| 2026-04-23 13:47 | 54.64403 | 11.40740 | 25442 ft | 454 kts | 214° |
| 2026-04-23 13:47 | 54.61767 | 11.37792 | 24920 ft | 450 kts | 214° |
| 2026-04-23 13:47 | 54.59152 | 11.34876 | 24392 ft | 445 kts | 214° |
| 2026-04-23 13:47 | 54.56570 | 11.32003 | 23887 ft | 439 kts | 214° |
| 2026-04-23 13:48 | 54.54029 | 11.29116 | 23309 ft | 435 kts | 216° |
| 2026-04-23 13:48 | 54.51555 | 11.26163 | 22731 ft | 431 kts | 217° |
| 2026-04-23 13:48 | 54.49127 | 11.23175 | 22150 ft | 428 kts | 217° |
| 2026-04-23 13:48 | 54.46723 | 11.20184 | 21575 ft | 425 kts | 217° |
| 2026-04-23 13:49 | 54.44333 | 11.17216 | 21025 ft | 423 kts | 217° |
| 2026-04-23 13:49 | 54.41952 | 11.14281 | 20486 ft | 420 kts | 217° |
| 2026-04-23 13:49 | 54.39579 | 11.11383 | 19952 ft | 418 kts | 217° |
| 2026-04-23 13:49 | 54.37236 | 11.08548 | 19430 ft | 416 kts | 217° |
| 2026-04-23 13:50 | 54.34840 | 11.05669 | 18921 ft | 415 kts | 217° |
| 2026-04-23 13:50 | 54.32483 | 11.02843 | 18384 ft | 412 kts | 217° |
| 2026-04-23 13:50 | 54.30294 | 10.99719 | 17798 ft | 408 kts | 228° |
| 2026-04-23 13:50 | 54.28535 | 10.96033 | 17237 ft | 403 kts | 235° |
| 2026-04-23 13:51 | 54.26833 | 10.92229 | 16678 ft | 401 kts | 235° |
| 2026-04-23 13:51 | 54.25135 | 10.88459 | 16124 ft | 399 kts | 235° |
| 2026-04-23 13:51 | 54.23441 | 10.84717 | 15582 ft | 397 kts | 235° |
| 2026-04-23 13:51 | 54.21756 | 10.81009 | 15055 ft | 394 kts | 235° |
| 2026-04-23 13:52 | 54.20082 | 10.77326 | 14528 ft | 391 kts | 235° |
| 2026-04-23 13:52 | 54.18422 | 10.73672 | 14008 ft | 388 kts | 235° |
| 2026-04-23 13:52 | 54.16776 | 10.70052 | 13435 ft | 384 kts | 236° |
| 2026-04-23 13:52 | 54.15147 | 10.66466 | 12856 ft | 380 kts | 236° |
| 2026-04-23 13:53 | 54.13534 | 10.62919 | 12307 ft | 376 kts | 236° |
| 2026-04-23 13:53 | 54.11939 | 10.59413 | 11743 ft | 372 kts | 236° |
| 2026-04-23 13:53 | 54.10357 | 10.55947 | 11210 ft | 368 kts | 236° |
| 2026-04-23 13:53 | 54.08791 | 10.52523 | 10674 ft | 364 kts | 236° |
| 2026-04-23 13:54 | 54.07250 | 10.49164 | 10342 ft | 354 kts | 236° |
| 2026-04-23 13:54 | 54.05762 | 10.45932 | 10256 ft | 338 kts | 236° |
| 2026-04-23 13:54 | 54.04352 | 10.42876 | 10269 ft | 319 kts | 236° |
| 2026-04-23 13:54 | 54.03013 | 10.39982 | 10244 ft | 304 kts | 236° |
| 2026-04-23 13:55 | 54.01719 | 10.37179 | 10011 ft | 298 kts | 236° |
| 2026-04-23 13:55 | 54.00412 | 10.34495 | 9772 ft | 294 kts | 227° |
| 2026-04-23 13:55 | 53.98708 | 10.32586 | 9472 ft | 296 kts | 204° |
| 2026-04-23 13:55 | 53.96696 | 10.31936 | 9160 ft | 296 kts | 179° |
| 2026-04-23 13:56 | 53.94705 | 10.32671 | 8854 ft | 293 kts | 154° |
| 2026-04-23 13:56 | 53.93067 | 10.34619 | 8541 ft | 285 kts | 130° |
| 2026-04-23 13:56 | 53.91970 | 10.37282 | 8244 ft | 277 kts | 116° |
| 2026-04-23 13:56 | 53.90783 | 10.39829 | 7945 ft | 277 kts | 136° |
| 2026-04-23 13:57 | 53.89167 | 10.41572 | 7651 ft | 276 kts | 157° |
| 2026-04-23 13:57 | 53.87317 | 10.42303 | 7356 ft | 273 kts | 178° |
| 2026-04-23 13:57 | 53.85460 | 10.41973 | 7068 ft | 267 kts | 199° |
| 2026-04-23 13:57 | 53.83805 | 10.40678 | 6780 ft | 259 kts | 219° |
| 2026-04-23 13:58 | 53.82509 | 10.38623 | 6352 ft | 256 kts | 235° |
| 2026-04-23 13:58 | 53.81378 | 10.36290 | 5879 ft | 257 kts | 235° |
| 2026-04-23 13:58 | 53.80256 | 10.33971 | 5408 ft | 254 kts | 235° |
| 2026-04-23 13:58 | 53.79137 | 10.31672 | 4960 ft | 251 kts | 234° |
| 2026-04-23 13:59 | 53.78036 | 10.29413 | 4531 ft | 244 kts | 236° |
| 2026-04-23 13:59 | 53.76972 | 10.27233 | 4193 ft | 238 kts | 236° |
| 2026-04-23 13:59 | 53.75932 | 10.25102 | 3876 ft | 231 kts | 234° |
| 2026-04-23 13:59 | 53.74920 | 10.23028 | 3584 ft | 228 kts | 236° |
| 2026-04-23 14:00 | 53.74238 | 10.21633 | 3371 ft | 227 kts | 234° |
| 2026-04-23 14:00 | 53.72939 | 10.18981 | 2967 ft | 217 kts | 236° |
| 2026-04-23 14:00 | 53.71997 | 10.17057 | 2702 ft | 207 kts | 234° |
| 2026-04-23 14:00 | 53.71104 | 10.15236 | 2406 ft | 196 kts | 236° |
| 2026-04-23 14:01 | 53.70263 | 10.13523 | 2151 ft | 182 kts | 237° |
| 2026-04-23 14:01 | 53.69485 | 10.11940 | 1922 ft | 167 kts | 236° |
| 2026-04-23 14:01 | 53.68787 | 10.10521 | 1704 ft | 149 kts | 238° |
| 2026-04-23 14:01 | 53.68147 | 10.09216 | 1493 ft | 141 kts | 239° |
| 2026-04-23 14:02 | 53.67533 | 10.07963 | 1306 ft | 137 kts | 239° |
| 2026-04-23 14:02 | 53.66929 | 10.06733 | 1122 ft | 136 kts | 239° |
| 2026-04-23 14:02 | 53.66330 | 10.05513 | 939 ft | 134 kts | 238° |
| 2026-04-23 14:02 | 53.65745 | 10.04325 | 772 ft | 130 kts | 239° |
| 2026-04-23 14:03 | 53.65166 | 10.03120 | 547 ft | 134 kts | 237° |
| 2026-04-23 14:03 | 53.64576 | 10.01943 | 383 ft | 129 kts | 236° |
| 2026-04-23 14:03 | 53.64007 | 10.00787 | 213 ft | 129 kts | 233° |
| 2026-04-23 14:03 | 53.63424 | 9.99623 | 59 ft | 129 kts | 236° |
| 2026-04-23 14:04 | 53.62946 | 9.98632 | 45 ft | 87 kts | 230° |
| 2026-04-23 14:04 | 53.62671 | 9.98081 | 42 ft | 40 kts | 230° |
| 2026-04-23 14:04 | 53.62545 | 9.97826 | 41 ft | 17 kts | 230° |
| 2026-04-23 14:04 | 53.62447 | 9.97817 | 43 ft | 15 kts | 140° |
| 2026-04-23 14:05 | 53.62434 | 9.97964 | 47 ft | 13 kts | 79° |
| 2026-04-23 14:05 | 53.62470 | 9.98103 | 44 ft | 13 kts | 56° |
| 2026-04-23 14:05 | 53.62529 | 9.98225 | 47 ft | 15 kts | 49° |
| 2026-04-23 14:05 | 53.62603 | 9.98375 | 47 ft | 18 kts | 50° |
| 2026-04-23 14:06 | 53.62684 | 9.98540 | 47 ft | 18 kts | 50° |
| 2026-04-23 14:06 | 53.62769 | 9.98713 | 47 ft | 20 kts | 50° |
| 2026-04-23 14:06 | 53.62858 | 9.98893 | 47 ft | 20 kts | 50° |
| 2026-04-23 14:06 | 53.62948 | 9.99075 | 47 ft | 21 kts | 50° |
| 2026-04-23 14:07 | 53.63040 | 9.99262 | 47 ft | 21 kts | 52° |
| 2026-04-23 14:07 | 53.63213 | 9.99655 | 48 ft | 19 kts | 50° |
| 2026-04-23 14:07 | 53.63304 | 9.99814 | 48 ft | 19 kts | 49° |
| 2026-04-23 14:08 | 53.63360 | 9.99927 | 48 ft | 18 kts | 50° |
| 2026-04-23 14:08 | 53.63426 | 10.00060 | 48 ft | 13 kts | 55° |
| 2026-04-23 14:08 | 53.63405 | 10.00180 | 47 ft | 10 kts | 125° |
| 2026-04-23 14:08 | 53.63357 | 10.00227 | 48 ft | 9 kts | 170° |
| 2026-04-23 14:09 | 53.63300 | 10.00246 | 47 ft | 8 kts | 144° |
| 2026-04-23 14:09 | 53.63291 | 10.00334 | 48 ft | 7 kts | 86° |
| 2026-04-23 14:09 | 53.63293 | 10.00367 | 48 ft | 0 kts | 86° |